Flight Track Log - Related Links

Times and Time Zones

All times are in EDT time to prevent confusion due to time zone crossing. See the SWA1835 flight status page for this flight to view local times or setup timezone preferences in your user account.

Time Position Orientation Groundspeed Altitude Reporting Facility
EDT Latitude Longitude Course Direction KTS MPH feet Rate Location/Type
Sat 12:36:01 PM 38.8333 -77.0333 180° South 150 173 1,200  Level Potomac TRACON
Sat 12:37:01 PM 38.7833 -77.0333 180° South 211 243 3,700 2,050 Climbing Potomac TRACON
Sat 12:38:01 PM 38.7667 -77.1167 256° West 248 285 5,300 3,095 Climbing Potomac TRACON
Sat 12:39:07 PM 38.7500 -77.2000 256° West 234 269 10,200 2,970 Climbing Potomac TRACON
Sat 12:41:23 PM 38.8181 -77.3781 296° West 311 358 15,300 2,051 Climbing Washington Center
Sat 12:42:23 PM 38.8394 -77.5133 282° West 323 372 16,900 774 Climbing Washington Center
Sat 12:43:27 PM 38.8597 -77.6217 284° West 326 375 16,900 1,104 Level Washington Center
Sat 12:44:28 PM 38.8794 -77.7356 283° West 329 379 19,200 2,496 Climbing Washington Center
Sat 12:45:32 PM 38.8989 -77.8517 282° West 334 384 22,100 2,758 Climbing Washington Center
Sat 12:46:32 PM 38.9222 -77.9861 283° West 334 384 24,900 2,226 Climbing Washington Center
Sat 12:47:36 PM 38.9431 -78.1100 282° West 351 404 26,700 1,742 Climbing Washington Center
Sat 12:48:36 PM 38.9633 -78.2392 281° West 368 423 28,500 1,869 Climbing Washington Center
Sat 12:49:38 PM 38.9706 -78.3717 274° West 373 429 30,500 1,762 Climbing Washington Center
Sat 12:50:42 PM 38.9797 -78.5069 275° West 374 430 32,200 1,742 Climbing Washington Center
Sat 12:51:42 PM 38.9903 -78.6719 275° West 384 442 34,100 1,548 Climbing Washington Center
Sat 12:52:46 PM 38.9978 -78.8086 274° West 384 442 35,400 1,392 Climbing Washington Center
Sat 12:53:47 PM 39.0064 -78.9464 275° West 384 442 37,000 1,258 Climbing Washington Center
Sat 12:54:50 PM 39.0139 -79.0764 274° West 367 422 38,000 484 Climbing Washington Center
Sat 12:55:51 PM 39.0225 -79.2072 275° West 366 421 38,000  Level Washington Center
Sat 12:56:55 PM 39.0297 -79.3381 274° West 366 421 38,000  Level Washington Center
Sat 12:57:56 PM 39.0411 -79.5050 275° West 388 447 38,000  Level Washington Center
Sat 12:58:57 PM 39.0506 -79.6472 275° West 390 449 38,000  Level Washington Center
Sat 01:00:01 PM 39.0597 -79.7881 275° West 391 450 38,000  Level Washington Center
Sat 01:01:02 PM 39.0672 -79.9247 274° West 389 448 38,000  Level Washington Center
Sat 01:02:05 PM 39.0744 -80.0606 274° West 388 447 38,000  Level Washington Center
Sat 01:02:38 PM 39.0792 -80.1369 275° West 384 442 38,000  Level Indianapolis Center
Sat 01:03:40 PM 39.0886 -80.2953 274° West 376 433 38,000  Level Indianapolis Center
Sat 01:04:42 PM 39.0958 -80.4275 274° West 375 432 38,000  Level Indianapolis Center
Sat 01:05:44 PM 39.1039 -80.5586 275° West 373 429 38,000  Level Indianapolis Center
Sat 01:06:46 PM 39.1153 -80.6906 276° West 372 428 38,000  Level Indianapolis Center
Sat 01:07:49 PM 39.1228 -80.8225 274° West 372 428 38,000  Level Indianapolis Center
Sat 01:08:51 PM 39.1317 -80.9528 275° West 372 428 38,000  Level Indianapolis Center
Sat 01:09:53 PM 39.1419 -81.1094 275° West 371 427 38,000  Level Indianapolis Center
Sat 01:10:55 PM 39.1511 -81.2369 275° West 365 420 38,000  Level Indianapolis Center
Sat 01:11:57 PM 39.1589 -81.3636 275° West 362 417 38,000  Level Indianapolis Center
Sat 01:12:59 PM 39.1675 -81.4900 275° West 361 415 38,000  Level Indianapolis Center
Sat 01:14:01 PM 39.1747 -81.6175 274° West 360 414 38,000  Level Indianapolis Center
Sat 01:15:03 PM 39.1836 -81.7717 274° West 361 415 38,000  Level Indianapolis Center
Sat 01:16:05 PM 39.1919 -81.8992 275° West 361 415 38,000  Level Indianapolis Center
Sat 01:17:07 PM 39.1989 -82.0258 274° West 360 414 38,000  Level Indianapolis Center
Sat 01:18:09 PM 39.2058 -82.1511 274° West 357 411 38,000  Level Indianapolis Center
Sat 01:19:11 PM 39.2128 -82.2756 274° West 352 405 38,000  Level Indianapolis Center
Sat 01:20:13 PM 39.2194 -82.3997 274° West 352 405 38,000  Level Indianapolis Center
Sat 01:21:15 PM 39.2269 -82.5325 274° West 352 405 38,000  Level Indianapolis Center
Sat 01:22:17 PM 39.2325 -82.6567 273° West 351 404 38,000  Level Indianapolis Center
Sat 01:23:19 PM 39.2411 -82.8053 274° West 350 403 38,000  Level Indianapolis Center
Sat 01:24:21 PM 39.2481 -82.9306 274° West 350 403 38,000  Level Indianapolis Center
Sat 01:25:23 PM 39.2536 -83.0556 273° West 350 403 38,000  Level Indianapolis Center
Sat 01:26:25 PM 39.2592 -83.1822 273° West 350 403 38,000  Level Indianapolis Center
Sat 01:27:27 PM 39.2656 -83.3097 274° West 351 404 38,000  Level Indianapolis Center
Sat 01:28:29 PM 39.2711 -83.4369 273° West 351 404 38,000  Level Indianapolis Center
Sat 01:29:31 PM 39.2769 -83.5636 273° West 352 405 38,000  Level Indianapolis Center
Sat 01:30:33 PM 39.2822 -83.6925 273° West 355 409 38,000  Level Indianapolis Center
Sat 01:31:34 PM 39.2892 -83.8475 273° West 355 409 38,000  Level Indianapolis Center
Sat 01:32:36 PM 39.2947 -83.9742 273° West 355 409 38,000  Level Indianapolis Center
Sat 01:33:38 PM 39.2997 -84.0997 273° West 353 406 38,000  Level Indianapolis Center
Sat 01:34:40 PM 39.3050 -84.2253 273° West 352 405 38,000  Level Indianapolis Center
Sat 01:35:42 PM 39.3097 -84.3475 273° West 345 397 38,000  Level Indianapolis Center
Sat 01:36:44 PM 39.3139 -84.4722 273° West 344 396 38,000  Level Indianapolis Center
Sat 01:37:46 PM 39.3192 -84.5944 273° West 344 396 38,000  Level Indianapolis Center
Sat 01:38:48 PM 39.3236 -84.7400 272° West 341 392 38,000  Level Indianapolis Center
Sat 01:39:49 PM 39.3286 -84.8597 273° West 338 389 38,000  Level Indianapolis Center
Sat 01:40:51 PM 39.3311 -84.9711 272° West 335 386 38,000  Level Indianapolis Center
Sat 01:41:53 PM 39.3356 -85.0919 273° West 336 387 38,000  Level Indianapolis Center
Sat 01:42:55 PM 39.3408 -85.2372 273° West 336 387 38,000  Level Indianapolis Center
Sat 01:43:57 PM 39.3436 -85.3592 272° West 336 387 38,000  Level Indianapolis Center
Sat 01:44:58 PM 39.3469 -85.4789 272° West 336 387 38,000  Level Indianapolis Center
Sat 01:46:00 PM 39.3506 -85.6014 272° West 337 388 38,000  Level Indianapolis Center
Sat 01:47:02 PM 39.3533 -85.7242 272° West 340 391 38,000  Level Indianapolis Center
Sat 01:48:04 PM 39.3567 -85.8467 272° West 340 391 38,000  Level Indianapolis Center
Sat 01:49:05 PM 39.3597 -85.9708 272° West 341 392 38,000  Level Indianapolis Center
Sat 01:50:07 PM 39.3628 -86.0961 272° West 342 394 38,000  Level Indianapolis Center
Sat 01:51:09 PM 39.3656 -86.2456 271° West 342 394 38,000  Level Indianapolis Center
Sat 01:52:10 PM 39.3681 -86.3700 272° West 343 395 38,000  Level Indianapolis Center
Sat 01:53:12 PM 39.3706 -86.4961 272° West 344 396 38,000  Level Indianapolis Center
Sat 01:54:14 PM 39.3736 -86.6214 272° West 344 396 38,000  Level Indianapolis Center
Sat 01:55:15 PM 39.3756 -86.7464 271° West 344 396 38,000  Level Indianapolis Center
Sat 01:56:17 PM 39.3781 -86.8719 272° West 345 397 38,000  Level Indianapolis Center
Sat 01:57:19 PM 39.3797 -86.9961 271° West 345 397 38,000  Level Indianapolis Center
Sat 01:58:21 PM 39.3811 -87.1194 271° West 345 397 38,000  Level Indianapolis Center
Sat 01:59:22 PM 39.3836 -87.2681 271° West 345 397 38,000  Level Indianapolis Center
Sat 02:00:24 PM 39.3847 -87.3911 271° West 345 397 38,000  Level Indianapolis Center
Sat 02:01:26 PM 39.3867 -87.5161 271° West 345 397 38,000 -293 Level Indianapolis Center
Sat 02:02:27 PM 39.3875 -87.6406 271° West 346 398 37,400 -1,073 Descending Indianapolis Center
Sat 02:03:29 PM 39.3892 -87.7667 271° West 347 399 35,800 -2,177 Descending Indianapolis Center
Sat 02:04:31 PM 39.3903 -87.8919 271° West 347 399 32,900 -2,683 Descending Indianapolis Center
Sat 02:05:32 PM 39.3900 -88.0228 270° West 359 413 30,300 -1,415 Descending Indianapolis Center
Sat 02:06:34 PM 39.3578 -88.1833 255° West 381 438 30,000 -194 Descending Indianapolis Center
Sat 02:07:05 PM 39.3417 -88.2383 249° West 386 444 30,000  Level Kansas City Center
Sat 02:08:07 PM 39.3078 -88.3683 251° West 385 443 30,000  Level Kansas City Center
Sat 02:09:08 PM 39.2742 -88.4947 251° West 376 433 30,000  Level Kansas City Center
Sat 02:10:10 PM 39.2372 -88.6331 251° West 377 434 30,000  Level Kansas City Center
Sat 02:11:12 PM 39.2042 -88.7603 251° West 377 434 30,000 -435 Level Kansas City Center
Sat 02:12:14 PM 39.1667 -88.8883 249° West 378 435 29,100 -1,415 Descending Kansas City Center
Sat 02:13:15 PM 39.1331 -89.0183 252° West 378 435 27,100 -2,049 Descending Kansas City Center
Sat 02:14:17 PM 39.0992 -89.1447 251° West 377 434 24,900 -2,129 Descending Kansas City Center
Sat 02:15:19 PM 39.0697 -89.2714 253° West 372 428 22,700 -2,293 Descending Kansas City Center
Sat 02:16:20 PM 39.0364 -89.4108 253° West 357 411 20,200 -2,146 Descending Kansas City Center
Sat 02:17:22 PM 39.0111 -89.5256 254° West 356 410 18,300 -2,177 Descending Kansas City Center
Sat 02:18:24 PM 38.9728 -89.6661 251° West 351 404 15,700 -1,839 Descending Kansas City Center
Sat 02:19:26 PM 38.9394 -89.7750 249° West 346 398 14,500 -1,366 Descending Kansas City Center
Sat 02:20:27 PM 38.9094 -89.8683 248° West 328 377 12,900 -1,805 Descending Kansas City Center
Sat 02:21:29 PM 38.8717 -89.9897 248° West 308 354 10,800 -1,403 Descending Kansas City Center
Sat 02:22:31 PM 38.8414 -90.0822 247° West 286 329 10,000 -878 Descending Kansas City Center
Sat 02:23:32 PM 38.8164 -90.1606 248° West 245 282 9,000 -1,171 Descending Kansas City Center
Sat 02:24:34 PM 38.8061 -90.2411 261° West 248 285 7,600 -1,016 Descending Kansas City Center
Sat 02:25:36 PM 38.8392 -90.3125 301° West 238 274 6,900 -1,024 Descending Kansas City Center
Sat 02:26:37 PM 38.8703 -90.3806 300° West 225 259 5,500 -1,268 Descending Kansas City Center
Sat 02:27:39 PM 38.8903 -90.4625 287° West 205 236 4,300 -1,016 Descending Kansas City Center
Sat 02:28:41 PM 38.8522 -90.5083 223° Southwest 202 232 3,400 -927 Descending Kansas City Center
Sat 02:29:42 PM 38.8061 -90.4853 159° South 182 209 2,400 -829 Descending Kansas City Center
Sat 02:30:44 PM 38.7825 -90.4381 123° Southeast 160 184 1,700 -726 Descending Kansas City Center
Sat 02:31:46 PM 38.7628 -90.3961 121° Southeast 147 169 900 -774 Descending Kansas City Center

Login

Don't have an account? Register now (free) for customized features, flight alerts, and more!